createdAt,value
2018-02-07T21:41:52.966Z,20.10
2018-02-07T21:44:20.331Z,21.20
2018-02-07T21:49:14.587Z,20.00
2018-02-07T21:51:41.735Z,20.40
2018-02-07T21:54:08.912Z,20.17
2018-02-07T21:56:36.407Z,23.40
2018-02-07T22:01:31.251Z,22.03
2018-02-07T22:03:58.688Z,23.53
2018-02-07T22:06:26.315Z,22.87
2018-02-07T22:08:53.742Z,22.67
2018-02-07T22:11:21.384Z,22.60
2018-02-07T22:13:48.725Z,21.63
2018-02-07T22:16:16.365Z,21.93
2018-02-07T22:18:43.770Z,22.03
2018-02-07T22:21:11.661Z,21.07
2018-02-07T22:23:39.193Z,21.33
2018-02-07T22:26:06.653Z,20.80
2018-02-07T22:28:34.364Z,20.50
2018-02-07T22:31:01.779Z,19.50
2018-02-07T22:33:29.588Z,18.57
2018-02-07T22:35:56.800Z,17.97
2018-02-07T22:38:24.639Z,18.83
2018-02-07T22:40:52.368Z,18.57
2018-02-07T22:43:19.771Z,17.77
2018-02-07T22:45:47.655Z,17.00
2018-02-07T22:48:15.232Z,16.60
2018-02-07T22:53:10.260Z,17.40
2018-02-07T22:55:37.701Z,17.67
2018-02-07T22:58:05.418Z,18.83
2018-02-07T23:00:32.725Z,18.87
2018-02-07T23:03:00.171Z,18.57
2018-02-07T23:07:54.774Z,22.03
2018-02-07T23:10:22.393Z,27.30
2018-02-07T23:12:49.712Z,29.40
2018-02-07T23:15:17.253Z,29.77
2018-02-07T23:17:44.638Z,27.60
2018-02-07T23:20:11.931Z,26.30
2018-02-07T23:25:06.706Z,21.57
2018-02-07T23:27:34.229Z,19.47
2018-02-07T23:30:01.689Z,19.20
2018-02-07T23:32:29.210Z,19.63
2018-02-07T23:34:56.688Z,18.03
2018-02-07T23:37:24.246Z,19.27
2018-02-07T23:39:51.682Z,18.37
2018-02-07T23:42:19.343Z,18.00
2018-02-07T23:44:46.715Z,17.10
2018-02-07T23:47:14.370Z,16.90
2018-02-07T23:49:41.689Z,15.60
2018-02-07T23:52:09.337Z,15.70
2018-02-07T23:54:36.708Z,16.50
2018-02-07T23:57:04.224Z,15.13
